sensor_id;sensor_type;location;lat;lon;timestamp;P1;durP1;ratioP1;P2;durP2;ratioP2
38613;SDS011;24369;49.480;8.488;2022-07-06T00:01:57;208.88;;;189.95;;
38613;SDS011;24369;49.480;8.488;2022-07-06T00:04:23;189.60;;;172.82;;
38613;SDS011;24369;49.480;8.488;2022-07-06T00:06:48;199.75;;;182.70;;
38613;SDS011;24369;49.480;8.488;2022-07-06T00:09:14;205.25;;;187.90;;
38613;SDS011;24369;49.480;8.488;2022-07-06T00:11:39;217.07;;;198.55;;
38613;SDS011;24369;49.480;8.488;2022-07-06T00:14:05;202.55;;;185.27;;
38613;SDS011;24369;49.480;8.488;2022-07-06T00:16:31;194.52;;;176.98;;
38613;SDS011;24369;49.480;8.488;2022-07-06T00:18:56;192.88;;;175.93;;
38613;SDS011;24369;49.480;8.488;2022-07-06T00:21:22;182.15;;;166.07;;
38613;SDS011;24369;49.480;8.488;2022-07-06T00:23:48;183.73;;;167.52;;
38613;SDS011;24369;49.480;8.488;2022-07-06T00:26:13;207.60;;;189.80;;
38613;SDS011;24369;49.480;8.488;2022-07-06T00:28:39;204.15;;;186.05;;
38613;SDS011;24369;49.480;8.488;2022-07-06T00:31:04;197.55;;;180.75;;
38613;SDS011;24369;49.480;8.488;2022-07-06T00:33:30;194.50;;;177.32;;
38613;SDS011;24369;49.480;8.488;2022-07-06T00:35:56;182.55;;;166.40;;
38613;SDS011;24369;49.480;8.488;2022-07-06T00:38:24;211.02;;;193.13;;
38613;SDS011;24369;49.480;8.488;2022-07-06T00:40:50;178.98;;;162.45;;
38613;SDS011;24369;49.480;8.488;2022-07-06T00:43:15;194.32;;;177.15;;
38613;SDS011;24369;49.480;8.488;2022-07-06T00:45:41;189.30;;;172.27;;
38613;SDS011;24369;49.480;8.488;2022-07-06T00:48:06;186.98;;;169.50;;
38613;SDS011;24369;49.480;8.488;2022-07-06T00:50:32;170.98;;;154.98;;
38613;SDS011;24369;49.480;8.488;2022-07-06T00:53:02;195.48;;;178.02;;
38613;SDS011;24369;49.480;8.488;2022-07-06T00:55:30;195.45;;;175.90;;
38613;SDS011;24369;49.480;8.488;2022-07-06T00:57:58;185.10;;;168.23;;
38613;SDS011;24369;49.480;8.488;2022-07-06T01:00:27;180.02;;;163.65;;
38613;SDS011;24369;49.480;8.488;2022-07-06T01:02:53;185.88;;;169.07;;
38613;SDS011;24369;49.480;8.488;2022-07-06T01:05:19;194.93;;;177.02;;
38613;SDS011;24369;49.480;8.488;2022-07-06T01:07:46;189.85;;;172.15;;
38613;SDS011;24369;49.480;8.488;2022-07-06T01:10:13;185.70;;;168.63;;
38613;SDS011;24369;49.480;8.488;2022-07-06T01:12:41;189.40;;;171.80;;
38613;SDS011;24369;49.480;8.488;2022-07-06T01:15:09;191.60;;;174.02;;
38613;SDS011;24369;49.480;8.488;2022-07-06T01:17:38;185.48;;;168.82;;
38613;SDS011;24369;49.480;8.488;2022-07-06T01:20:07;200.60;;;182.63;;
38613;SDS011;24369;49.480;8.488;2022-07-06T01:22:35;186.82;;;169.40;;
38613;SDS011;24369;49.480;8.488;2022-07-06T01:25:01;190.82;;;172.88;;
38613;SDS011;24369;49.480;8.488;2022-07-06T01:27:26;189.20;;;171.30;;
38613;SDS011;24369;49.480;8.488;2022-07-06T01:29:52;208.57;;;189.82;;
38613;SDS011;24369;49.480;8.488;2022-07-06T01:32:17;186.20;;;169.32;;
38613;SDS011;24369;49.480;8.488;2022-07-06T01:34:43;187.65;;;169.93;;
38613;SDS011;24369;49.480;8.488;2022-07-06T01:37:08;185.70;;;168.40;;
38613;SDS011;24369;49.480;8.488;2022-07-06T01:39:36;169.82;;;153.40;;
38613;SDS011;24369;49.480;8.488;2022-07-06T01:42:02;184.65;;;166.82;;
38613;SDS011;24369;49.480;8.488;2022-07-06T01:44:27;188.02;;;170.95;;
38613;SDS011;24369;49.480;8.488;2022-07-06T01:46:53;180.00;;;163.27;;
38613;SDS011;24369;49.480;8.488;2022-07-06T01:49:19;194.48;;;175.85;;
38613;SDS011;24369;49.480;8.488;2022-07-06T01:51:44;191.20;;;172.23;;
38613;SDS011;24369;49.480;8.488;2022-07-06T01:54:12;185.27;;;167.20;;
38613;SDS011;24369;49.480;8.488;2022-07-06T01:56:38;230.75;;;210.93;;
38613;SDS011;24369;49.480;8.488;2022-07-06T01:59:03;176.98;;;159.75;;
38613;SDS011;24369;49.480;8.488;2022-07-06T02:01:29;171.98;;;155.68;;
38613;SDS011;24369;49.480;8.488;2022-07-06T02:03:54;175.40;;;157.82;;
38613;SDS011;24369;49.480;8.488;2022-07-06T02:06:19;185.45;;;167.55;;
38613;SDS011;24369;49.480;8.488;2022-07-06T02:08:45;169.55;;;153.25;;
38613;SDS011;24369;49.480;8.488;2022-07-06T02:11:14;180.13;;;162.48;;
38613;SDS011;24369;49.480;8.488;2022-07-06T02:13:42;177.60;;;159.75;;
38613;SDS011;24369;49.480;8.488;2022-07-06T02:16:10;184.85;;;167.88;;
38613;SDS011;24369;49.480;8.488;2022-07-06T02:18:39;183.57;;;165.63;;
38613;SDS011;24369;49.480;8.488;2022-07-06T02:21:05;184.73;;;166.98;;
38613;SDS011;24369;49.480;8.488;2022-07-06T02:23:30;183.15;;;165.75;;
38613;SDS011;24369;49.480;8.488;2022-07-06T02:25:56;174.05;;;157.10;;
38613;SDS011;24369;49.480;8.488;2022-07-06T02:28:24;171.48;;;154.65;;
38613;SDS011;24369;49.480;8.488;2022-07-06T02:30:49;181.38;;;164.02;;
38613;SDS011;24369;49.480;8.488;2022-07-06T02:33:14;192.98;;;174.75;;
38613;SDS011;24369;49.480;8.488;2022-07-06T02:35:40;199.15;;;179.43;;
38613;SDS011;24369;49.480;8.488;2022-07-06T02:38:11;175.02;;;157.57;;
38613;SDS011;24369;49.480;8.488;2022-07-06T02:40:40;174.48;;;156.63;;
38613;SDS011;24369;49.480;8.488;2022-07-06T02:43:06;181.43;;;164.23;;
38613;SDS011;24369;49.480;8.488;2022-07-06T02:45:32;201.02;;;180.98;;
38613;SDS011;24369;49.480;8.488;2022-07-06T02:47:57;190.40;;;172.40;;
38613;SDS011;24369;49.480;8.488;2022-07-06T02:50:23;213.93;;;194.00;;
38613;SDS011;24369;49.480;8.488;2022-07-06T02:52:49;188.55;;;171.50;;
38613;SDS011;24369;49.480;8.488;2022-07-06T02:55:14;180.25;;;163.23;;
38613;SDS011;24369;49.480;8.488;2022-07-06T02:57:41;217.20;;;197.13;;
38613;SDS011;24369;49.480;8.488;2022-07-06T03:00:07;192.18;;;174.10;;
38613;SDS011;24369;49.480;8.488;2022-07-06T03:02:36;182.45;;;165.65;;
38613;SDS011;24369;49.480;8.488;2022-07-06T03:05:01;181.65;;;164.38;;
38613;SDS011;24369;49.480;8.488;2022-07-06T03:07:27;174.95;;;157.75;;
38613;SDS011;24369;49.480;8.488;2022-07-06T03:09:53;167.90;;;150.75;;
38613;SDS011;24369;49.480;8.488;2022-07-06T03:12:18;175.70;;;158.75;;
38613;SDS011;24369;49.480;8.488;2022-07-06T03:14:43;181.55;;;163.60;;
38613;SDS011;24369;49.480;8.488;2022-07-06T03:17:09;165.77;;;148.90;;
38613;SDS011;24369;49.480;8.488;2022-07-06T03:19:34;178.93;;;160.52;;
38613;SDS011;24369;49.480;8.488;2022-07-06T03:22:00;183.18;;;164.35;;
38613;SDS011;24369;49.480;8.488;2022-07-06T03:24:25;169.75;;;153.05;;
38613;SDS011;24369;49.480;8.488;2022-07-06T03:26:51;170.10;;;152.95;;
38613;SDS011;24369;49.480;8.488;2022-07-06T03:29:16;189.25;;;170.63;;
38613;SDS011;24369;49.480;8.488;2022-07-06T03:31:42;187.05;;;167.68;;
38613;SDS011;24369;49.480;8.488;2022-07-06T03:34:07;169.40;;;152.27;;
38613;SDS011;24369;49.480;8.488;2022-07-06T03:36:33;188.35;;;170.63;;
38613;SDS011;24369;49.480;8.488;2022-07-06T03:38:58;178.60;;;161.10;;
38613;SDS011;24369;49.480;8.488;2022-07-06T03:41:23;178.10;;;160.30;;
38613;SDS011;24369;49.480;8.488;2022-07-06T03:44:02;182.48;;;164.25;;
38613;SDS011;24369;49.480;8.488;2022-07-06T03:46:27;190.88;;;171.60;;
38613;SDS011;24369;49.480;8.488;2022-07-06T03:52:16;178.23;;;160.13;;
38613;SDS011;24369;49.480;8.488;2022-07-06T03:54:41;189.30;;;167.85;;
38613;SDS011;24369;49.480;8.488;2022-07-06T03:57:06;174.18;;;156.63;;
38613;SDS011;24369;49.480;8.488;2022-07-06T03:59:32;188.38;;;166.30;;
38613;SDS011;24369;49.480;8.488;2022-07-06T04:01:58;211.30;;;190.25;;
38613;SDS011;24369;49.480;8.488;2022-07-06T04:04:23;178.05;;;160.18;;
38613;SDS011;24369;49.480;8.488;2022-07-06T04:06:49;180.63;;;163.05;;
38613;SDS011;24369;49.480;8.488;2022-07-06T04:09:14;184.25;;;166.82;;
38613;SDS011;24369;49.480;8.488;2022-07-06T04:11:40;195.90;;;176.60;;
38613;SDS011;24369;49.480;8.488;2022-07-06T04:14:05;174.10;;;157.23;;
38613;SDS011;24369;49.480;8.488;2022-07-06T04:16:30;198.02;;;177.98;;
38613;SDS011;24369;49.480;8.488;2022-07-06T04:18:56;177.00;;;159.80;;
38613;SDS011;24369;49.480;8.488;2022-07-06T04:21:21;208.82;;;187.55;;
38613;SDS011;24369;49.480;8.488;2022-07-06T04:23:47;182.90;;;165.43;;
38613;SDS011;24369;49.480;8.488;2022-07-06T04:26:12;197.38;;;178.15;;
38613;SDS011;24369;49.480;8.488;2022-07-06T04:28:37;201.73;;;182.60;;
38613;SDS011;24369;49.480;8.488;2022-07-06T04:31:03;197.90;;;179.60;;
38613;SDS011;24369;49.480;8.488;2022-07-06T04:33:28;213.32;;;192.13;;
38613;SDS011;24369;49.480;8.488;2022-07-06T04:35:54;193.23;;;175.18;;
38613;SDS011;24369;49.480;8.488;2022-07-06T04:38:19;191.77;;;173.18;;
38613;SDS011;24369;49.480;8.488;2022-07-06T04:40:45;192.68;;;173.50;;
38613;SDS011;24369;49.480;8.488;2022-07-06T04:43:11;179.93;;;163.60;;
38613;SDS011;24369;49.480;8.488;2022-07-06T04:45:37;199.10;;;180.93;;
38613;SDS011;24369;49.480;8.488;2022-07-06T04:48:02;201.30;;;182.50;;
38613;SDS011;24369;49.480;8.488;2022-07-06T04:50:28;211.23;;;191.15;;
38613;SDS011;24369;49.480;8.488;2022-07-06T04:52:53;196.45;;;178.88;;
38613;SDS011;24369;49.480;8.488;2022-07-06T04:55:22;266.55;;;244.23;;
38613;SDS011;24369;49.480;8.488;2022-07-06T04:57:50;202.15;;;183.60;;
38613;SDS011;24369;49.480;8.488;2022-07-06T05:00:20;188.18;;;169.70;;
38613;SDS011;24369;49.480;8.488;2022-07-06T05:02:46;201.93;;;182.75;;
38613;SDS011;24369;49.480;8.488;2022-07-06T05:05:11;198.10;;;179.30;;
38613;SDS011;24369;49.480;8.488;2022-07-06T05:07:37;197.98;;;178.68;;
38613;SDS011;24369;49.480;8.488;2022-07-06T05:10:05;192.65;;;175.52;;
38613;SDS011;24369;49.480;8.488;2022-07-06T05:12:53;204.82;;;186.27;;
38613;SDS011;24369;49.480;8.488;2022-07-06T05:15:20;206.85;;;187.73;;
38613;SDS011;24369;49.480;8.488;2022-07-06T05:17:45;233.18;;;213.10;;
38613;SDS011;24369;49.480;8.488;2022-07-06T05:20:10;214.27;;;195.88;;
38613;SDS011;24369;49.480;8.488;2022-07-06T05:22:36;205.35;;;186.02;;
38613;SDS011;24369;49.480;8.488;2022-07-06T05:25:01;187.32;;;169.25;;
38613;SDS011;24369;49.480;8.488;2022-07-06T05:27:27;220.18;;;200.05;;
38613;SDS011;24369;49.480;8.488;2022-07-06T05:29:52;199.20;;;181.32;;
38613;SDS011;24369;49.480;8.488;2022-07-06T05:32:18;206.48;;;187.95;;
38613;SDS011;24369;49.480;8.488;2022-07-06T05:34:43;204.60;;;185.57;;
38613;SDS011;24369;49.480;8.488;2022-07-06T05:37:09;224.13;;;205.23;;
38613;SDS011;24369;49.480;8.488;2022-07-06T05:39:35;201.45;;;182.18;;
38613;SDS011;24369;49.480;8.488;2022-07-06T05:42:00;270.33;;;247.05;;
38613;SDS011;24369;49.480;8.488;2022-07-06T05:44:26;244.65;;;224.43;;
38613;SDS011;24369;49.480;8.488;2022-07-06T05:46:51;212.57;;;194.75;;
38613;SDS011;24369;49.480;8.488;2022-07-06T05:49:37;241.13;;;220.65;;
38613;SDS011;24369;49.480;8.488;2022-07-06T05:52:21;250.23;;;228.13;;
38613;SDS011;24369;49.480;8.488;2022-07-06T05:54:46;210.23;;;191.15;;
38613;SDS011;24369;49.480;8.488;2022-07-06T05:57:12;196.00;;;178.27;;
38613;SDS011;24369;49.480;8.488;2022-07-06T05:59:37;234.30;;;212.07;;
38613;SDS011;24369;49.480;8.488;2022-07-06T06:02:02;240.73;;;218.13;;
38613;SDS011;24369;49.480;8.488;2022-07-06T06:04:28;207.30;;;188.75;;
38613;SDS011;24369;49.480;8.488;2022-07-06T06:06:53;219.35;;;198.82;;
38613;SDS011;24369;49.480;8.488;2022-07-06T06:09:18;223.85;;;203.68;;
38613;SDS011;24369;49.480;8.488;2022-07-06T06:11:44;218.13;;;198.30;;
38613;SDS011;24369;49.480;8.488;2022-07-06T06:14:10;217.40;;;198.02;;
38613;SDS011;24369;49.480;8.488;2022-07-06T06:16:35;226.55;;;205.65;;
38613;SDS011;24369;49.480;8.488;2022-07-06T06:19:01;221.57;;;202.25;;
38613;SDS011;24369;49.480;8.488;2022-07-06T06:21:27;232.80;;;211.82;;
38613;SDS011;24369;49.480;8.488;2022-07-06T06:23:52;232.40;;;212.77;;
38613;SDS011;24369;49.480;8.488;2022-07-06T06:26:18;207.88;;;188.57;;
38613;SDS011;24369;49.480;8.488;2022-07-06T06:28:43;247.07;;;226.68;;
38613;SDS011;24369;49.480;8.488;2022-07-06T06:31:08;223.02;;;204.30;;
38613;SDS011;24369;49.480;8.488;2022-07-06T06:33:34;269.05;;;247.57;;
38613;SDS011;24369;49.480;8.488;2022-07-06T06:35:59;241.38;;;221.63;;
38613;SDS011;24369;49.480;8.488;2022-07-06T06:38:25;262.92;;;242.70;;
38613;SDS011;24369;49.480;8.488;2022-07-06T06:40:51;243.68;;;223.45;;
38613;SDS011;24369;49.480;8.488;2022-07-06T06:43:16;243.40;;;223.68;;
38613;SDS011;24369;49.480;8.488;2022-07-06T06:45:42;213.25;;;194.82;;
38613;SDS011;24369;49.480;8.488;2022-07-06T06:48:07;257.88;;;237.70;;
38613;SDS011;24369;49.480;8.488;2022-07-06T06:50:33;231.85;;;211.82;;
38613;SDS011;24369;49.480;8.488;2022-07-06T06:52:59;243.40;;;223.70;;
38613;SDS011;24369;49.480;8.488;2022-07-06T06:55:24;245.35;;;222.85;;
38613;SDS011;24369;49.480;8.488;2022-07-06T06:57:50;221.48;;;202.23;;
38613;SDS011;24369;49.480;8.488;2022-07-06T07:00:16;209.75;;;191.30;;
38613;SDS011;24369;49.480;8.488;2022-07-06T07:02:41;230.55;;;209.40;;
38613;SDS011;24369;49.480;8.488;2022-07-06T07:05:08;220.38;;;201.75;;
38613;SDS011;24369;49.480;8.488;2022-07-06T07:07:33;235.85;;;215.93;;
38613;SDS011;24369;49.480;8.488;2022-07-06T07:09:59;216.63;;;197.77;;
38613;SDS011;24369;49.480;8.488;2022-07-06T07:12:25;229.73;;;210.75;;
38613;SDS011;24369;49.480;8.488;2022-07-06T07:14:50;213.18;;;194.73;;
38613;SDS011;24369;49.480;8.488;2022-07-06T07:17:18;212.73;;;194.32;;
38613;SDS011;24369;49.480;8.488;2022-07-06T07:19:44;223.35;;;204.20;;
38613;SDS011;24369;49.480;8.488;2022-07-06T07:22:12;215.93;;;197.48;;
38613;SDS011;24369;49.480;8.488;2022-07-06T07:24:37;215.80;;;197.38;;
38613;SDS011;24369;49.480;8.488;2022-07-06T07:27:03;241.15;;;221.23;;
38613;SDS011;24369;49.480;8.488;2022-07-06T07:29:30;233.13;;;213.80;;
38613;SDS011;24369;49.480;8.488;2022-07-06T07:31:55;249.25;;;228.25;;
38613;SDS011;24369;49.480;8.488;2022-07-06T07:34:21;232.20;;;212.75;;
38613;SDS011;24369;49.480;8.488;2022-07-06T07:36:46;234.30;;;215.02;;
38613;SDS011;24369;49.480;8.488;2022-07-06T07:39:15;227.43;;;209.27;;
38613;SDS011;24369;49.480;8.488;2022-07-06T07:41:40;243.10;;;223.23;;
38613;SDS011;24369;49.480;8.488;2022-07-06T07:44:06;229.38;;;210.88;;
38613;SDS011;24369;49.480;8.488;2022-07-06T07:46:31;229.40;;;210.30;;
38613;SDS011;24369;49.480;8.488;2022-07-06T07:48:59;223.73;;;205.40;;
38613;SDS011;24369;49.480;8.488;2022-07-06T07:51:25;226.27;;;207.73;;
38613;SDS011;24369;49.480;8.488;2022-07-06T07:53:50;241.23;;;222.00;;
38613;SDS011;24369;49.480;8.488;2022-07-06T07:56:16;229.98;;;211.43;;
38613;SDS011;24369;49.480;8.488;2022-07-06T07:58:41;236.35;;;217.00;;
38613;SDS011;24369;49.480;8.488;2022-07-06T08:01:07;202.20;;;183.57;;
38613;SDS011;24369;49.480;8.488;2022-07-06T08:03:32;255.90;;;232.80;;
38613;SDS011;24369;49.480;8.488;2022-07-06T08:05:58;204.18;;;186.25;;
38613;SDS011;24369;49.480;8.488;2022-07-06T08:08:26;227.65;;;208.73;;
38613;SDS011;24369;49.480;8.488;2022-07-06T08:10:52;248.52;;;228.55;;
38613;SDS011;24369;49.480;8.488;2022-07-06T08:13:17;224.73;;;205.85;;
38613;SDS011;24369;49.480;8.488;2022-07-06T08:15:43;209.57;;;191.30;;
38613;SDS011;24369;49.480;8.488;2022-07-06T08:18:08;206.63;;;188.80;;
38613;SDS011;24369;49.480;8.488;2022-07-06T08:20:38;196.30;;;178.52;;
38613;SDS011;24369;49.480;8.488;2022-07-06T08:23:03;199.88;;;180.57;;
38613;SDS011;24369;49.480;8.488;2022-07-06T08:25:29;188.88;;;170.82;;
38613;SDS011;24369;49.480;8.488;2022-07-06T08:27:56;196.13;;;178.10;;
38613;SDS011;24369;49.480;8.488;2022-07-06T08:30:21;204.40;;;185.82;;
38613;SDS011;24369;49.480;8.488;2022-07-06T08:32:47;214.02;;;194.70;;
38613;SDS011;24369;49.480;8.488;2022-07-06T08:35:13;184.18;;;167.18;;
38613;SDS011;24369;49.480;8.488;2022-07-06T08:37:41;192.50;;;175.15;;
38613;SDS011;24369;49.480;8.488;2022-07-06T08:40:07;195.18;;;177.52;;
38613;SDS011;24369;49.480;8.488;2022-07-06T08:42:34;221.18;;;202.73;;
38613;SDS011;24369;49.480;8.488;2022-07-06T08:45:01;200.40;;;182.93;;
38613;SDS011;24369;49.480;8.488;2022-07-06T08:47:32;203.25;;;185.00;;
38613;SDS011;24369;49.480;8.488;2022-07-06T08:50:03;200.68;;;182.13;;
38613;SDS011;24369;49.480;8.488;2022-07-06T08:52:29;206.70;;;188.35;;
38613;SDS011;24369;49.480;8.488;2022-07-06T08:54:55;195.85;;;177.63;;
38613;SDS011;24369;49.480;8.488;2022-07-06T08:57:21;191.88;;;175.75;;
38613;SDS011;24369;49.480;8.488;2022-07-06T08:59:48;205.68;;;187.80;;
38613;SDS011;24369;49.480;8.488;2022-07-06T09:02:13;225.45;;;208.10;;
38613;SDS011;24369;49.480;8.488;2022-07-06T09:04:39;206.02;;;188.88;;
38613;SDS011;24369;49.480;8.488;2022-07-06T09:07:08;222.00;;;204.43;;
38613;SDS011;24369;49.480;8.488;2022-07-06T09:09:34;233.10;;;214.35;;
38613;SDS011;24369;49.480;8.488;2022-07-06T09:12:02;224.00;;;205.68;;
38613;SDS011;24369;49.480;8.488;2022-07-06T09:14:29;211.95;;;195.20;;
38613;SDS011;24369;49.480;8.488;2022-07-06T09:17:02;223.18;;;204.90;;
38613;SDS011;24369;49.480;8.488;2022-07-06T09:19:30;218.85;;;201.05;;
38613;SDS011;24369;49.480;8.488;2022-07-06T09:22:00;246.82;;;226.68;;
38613;SDS011;24369;49.480;8.488;2022-07-06T09:24:26;222.63;;;204.18;;
38613;SDS011;24369;49.480;8.488;2022-07-06T09:26:55;225.55;;;206.52;;
38613;SDS011;24369;49.480;8.488;2022-07-06T09:29:26;199.38;;;182.38;;
38613;SDS011;24369;49.480;8.488;2022-07-06T09:32:14;219.87;;;201.53;;
38613;SDS011;24369;49.480;8.488;2022-07-06T09:34:46;207.65;;;188.88;;
38613;SDS011;24369;49.480;8.488;2022-07-06T09:37:13;218.13;;;199.07;;
38613;SDS011;24369;49.480;8.488;2022-07-06T09:39:39;197.45;;;180.38;;
38613;SDS011;24369;49.480;8.488;2022-07-06T09:42:06;208.90;;;190.10;;
38613;SDS011;24369;49.480;8.488;2022-07-06T09:44:37;191.68;;;174.80;;
38613;SDS011;24369;49.480;8.488;2022-07-06T09:47:05;204.60;;;186.63;;
38613;SDS011;24369;49.480;8.488;2022-07-06T09:49:35;216.15;;;197.90;;
38613;SDS011;24369;49.480;8.488;2022-07-06T09:52:03;211.38;;;191.73;;
38613;SDS011;24369;49.480;8.488;2022-07-06T09:54:33;200.05;;;182.48;;
38613;SDS011;24369;49.480;8.488;2022-07-06T09:57:00;214.63;;;195.75;;
38613;SDS011;24369;49.480;8.488;2022-07-06T09:59:30;199.23;;;181.95;;
38613;SDS011;24369;49.480;8.488;2022-07-06T10:01:57;223.43;;;204.02;;
38613;SDS011;24369;49.480;8.488;2022-07-06T10:04:24;202.32;;;184.85;;
38613;SDS011;24369;49.480;8.488;2022-07-06T10:06:50;194.75;;;177.75;;
38613;SDS011;24369;49.480;8.488;2022-07-06T10:09:18;200.70;;;183.38;;
38613;SDS011;24369;49.480;8.488;2022-07-06T10:11:52;220.77;;;201.90;;
38613;SDS011;24369;49.480;8.488;2022-07-06T10:14:27;223.65;;;204.98;;
38613;SDS011;24369;49.480;8.488;2022-07-06T10:16:55;224.52;;;205.70;;
38613;SDS011;24369;49.480;8.488;2022-07-06T10:19:27;211.95;;;194.10;;
38613;SDS011;24369;49.480;8.488;2022-07-06T10:21:55;243.93;;;223.80;;
38613;SDS011;24369;49.480;8.488;2022-07-06T10:24:23;205.55;;;188.43;;
38613;SDS011;24369;49.480;8.488;2022-07-06T10:26:49;213.70;;;194.95;;
38613;SDS011;24369;49.480;8.488;2022-07-06T10:29:15;208.80;;;190.82;;
38613;SDS011;24369;49.480;8.488;2022-07-06T10:31:42;214.88;;;196.05;;
38613;SDS011;24369;49.480;8.488;2022-07-06T10:34:10;199.82;;;181.77;;
38613;SDS011;24369;49.480;8.488;2022-07-06T10:36:38;215.10;;;196.93;;
38613;SDS011;24369;49.480;8.488;2022-07-06T10:39:05;196.70;;;179.23;;
38613;SDS011;24369;49.480;8.488;2022-07-06T10:41:51;253.90;;;232.05;;
38613;SDS011;24369;49.480;8.488;2022-07-06T10:44:17;234.82;;;215.60;;
38613;SDS011;24369;49.480;8.488;2022-07-06T10:46:55;221.88;;;203.75;;
38613;SDS011;24369;49.480;8.488;2022-07-06T10:49:22;213.82;;;196.23;;
38613;SDS011;24369;49.480;8.488;2022-07-06T10:51:48;222.65;;;203.98;;
38613;SDS011;24369;49.480;8.488;2022-07-06T10:54:15;212.48;;;194.70;;
38613;SDS011;24369;49.480;8.488;2022-07-06T10:56:43;225.75;;;206.65;;
38613;SDS011;24369;49.480;8.488;2022-07-06T10:59:11;191.70;;;174.93;;
38613;SDS011;24369;49.480;8.488;2022-07-06T11:01:40;214.65;;;196.20;;
38613;SDS011;24369;49.480;8.488;2022-07-06T11:04:06;211.75;;;193.30;;
38613;SDS011;24369;49.480;8.488;2022-07-06T11:06:34;212.85;;;194.90;;
38613;SDS011;24369;49.480;8.488;2022-07-06T11:16:22;214.55;;;196.75;;
38613;SDS011;24369;49.480;8.488;2022-07-06T11:24:03;213.77;;;195.45;;
38613;SDS011;24369;49.480;8.488;2022-07-06T11:26:30;212.73;;;195.98;;
38613;SDS011;24369;49.480;8.488;2022-07-06T11:29:00;226.07;;;207.75;;
38613;SDS011;24369;49.480;8.488;2022-07-06T11:31:28;213.10;;;196.13;;
38613;SDS011;24369;49.480;8.488;2022-07-06T11:33:53;218.65;;;200.90;;
38613;SDS011;24369;49.480;8.488;2022-07-06T11:36:19;221.90;;;204.48;;
38613;SDS011;24369;49.480;8.488;2022-07-06T11:38:47;228.73;;;210.43;;
38613;SDS011;24369;49.480;8.488;2022-07-06T11:41:16;227.32;;;209.70;;
38613;SDS011;24369;49.480;8.488;2022-07-06T11:43:43;224.07;;;206.48;;
38613;SDS011;24369;49.480;8.488;2022-07-06T11:46:29;222.50;;;204.85;;
38613;SDS011;24369;49.480;8.488;2022-07-06T11:48:56;247.02;;;227.48;;
38613;SDS011;24369;49.480;8.488;2022-07-06T11:51:24;239.15;;;220.15;;
38613;SDS011;24369;49.480;8.488;2022-07-06T11:53:53;220.43;;;202.95;;
38613;SDS011;24369;49.480;8.488;2022-07-06T11:56:19;229.52;;;211.82;;
38613;SDS011;24369;49.480;8.488;2022-07-06T11:58:50;227.30;;;209.95;;
38613;SDS011;24369;49.480;8.488;2022-07-06T12:01:17;224.50;;;207.10;;
38613;SDS011;24369;49.480;8.488;2022-07-06T12:03:43;231.90;;;213.85;;
38613;SDS011;24369;49.480;8.488;2022-07-06T12:06:13;243.20;;;224.27;;
38613;SDS011;24369;49.480;8.488;2022-07-06T12:11:39;215.75;;;198.68;;
38613;SDS011;24369;49.480;8.488;2022-07-06T12:14:12;226.65;;;208.07;;
38613;SDS011;24369;49.480;8.488;2022-07-06T12:16:42;224.20;;;206.68;;
38613;SDS011;24369;49.480;8.488;2022-07-06T12:19:08;228.82;;;211.23;;
38613;SDS011;24369;49.480;8.488;2022-07-06T12:21:36;236.80;;;218.27;;
38613;SDS011;24369;49.480;8.488;2022-07-06T12:24:06;225.43;;;207.27;;
38613;SDS011;24369;49.480;8.488;2022-07-06T12:26:38;217.02;;;199.68;;
38613;SDS011;24369;49.480;8.488;2022-07-06T12:29:05;218.85;;;201.18;;
38613;SDS011;24369;49.480;8.488;2022-07-06T12:34:02;227.82;;;209.60;;
38613;SDS011;24369;49.480;8.488;2022-07-06T12:36:28;233.23;;;215.70;;
38613;SDS011;24369;49.480;8.488;2022-07-06T12:38:54;222.05;;;204.35;;
38613;SDS011;24369;49.480;8.488;2022-07-06T12:41:30;214.80;;;197.50;;
38613;SDS011;24369;49.480;8.488;2022-07-06T12:44:02;233.80;;;214.82;;
38613;SDS011;24369;49.480;8.488;2022-07-06T12:46:33;221.73;;;204.05;;
38613;SDS011;24369;49.480;8.488;2022-07-06T12:49:10;236.55;;;217.68;;
38613;SDS011;24369;49.480;8.488;2022-07-06T12:54:50;212.52;;;195.07;;
38613;SDS011;24369;49.480;8.488;2022-07-06T12:59:46;222.13;;;204.77;;
38613;SDS011;24369;49.480;8.488;2022-07-06T13:04:43;210.77;;;193.85;;
38613;SDS011;24369;49.480;8.488;2022-07-06T13:07:18;191.35;;;175.20;;
38613;SDS011;24369;49.480;8.488;2022-07-06T13:09:44;224.82;;;207.15;;
38613;SDS011;24369;49.480;8.488;2022-07-06T13:12:10;242.38;;;224.10;;
38613;SDS011;24369;49.480;8.488;2022-07-06T13:14:35;213.82;;;196.95;;
38613;SDS011;24369;49.480;8.488;2022-07-06T13:17:01;239.02;;;219.98;;
38613;SDS011;24369;49.480;8.488;2022-07-06T13:19:27;214.65;;;197.30;;
38613;SDS011;24369;49.480;8.488;2022-07-06T13:21:52;232.18;;;212.73;;
38613;SDS011;24369;49.480;8.488;2022-07-06T13:24:17;215.80;;;198.40;;
38613;SDS011;24369;49.480;8.488;2022-07-06T13:26:43;227.68;;;209.77;;
38613;SDS011;24369;49.480;8.488;2022-07-06T13:29:09;216.43;;;199.30;;
38613;SDS011;24369;49.480;8.488;2022-07-06T13:31:36;212.63;;;195.68;;
38613;SDS011;24369;49.480;8.488;2022-07-06T13:34:02;220.82;;;202.50;;
38613;SDS011;24369;49.480;8.488;2022-07-06T13:36:28;216.80;;;199.77;;
38613;SDS011;24369;49.480;8.488;2022-07-06T13:38:53;224.68;;;206.15;;
38613;SDS011;24369;49.480;8.488;2022-07-06T13:41:19;206.45;;;189.23;;
38613;SDS011;24369;49.480;8.488;2022-07-06T13:43:44;215.25;;;197.65;;
38613;SDS011;24369;49.480;8.488;2022-07-06T13:46:09;205.05;;;187.60;;
38613;SDS011;24369;49.480;8.488;2022-07-06T13:48:37;210.45;;;193.25;;
38613;SDS011;24369;49.480;8.488;2022-07-06T13:51:03;218.38;;;201.57;;
38613;SDS011;24369;49.480;8.488;2022-07-06T13:53:29;210.93;;;193.57;;
38613;SDS011;24369;49.480;8.488;2022-07-06T13:55:56;219.75;;;202.20;;
38613;SDS011;24369;49.480;8.488;2022-07-06T13:58:22;208.23;;;191.63;;
38613;SDS011;24369;49.480;8.488;2022-07-06T14:00:47;208.20;;;191.35;;
38613;SDS011;24369;49.480;8.488;2022-07-06T14:03:13;222.20;;;204.65;;
38613;SDS011;24369;49.480;8.488;2022-07-06T14:05:41;203.38;;;186.60;;
38613;SDS011;24369;49.480;8.488;2022-07-06T14:08:06;212.15;;;194.73;;
38613;SDS011;24369;49.480;8.488;2022-07-06T14:10:33;225.73;;;207.85;;
38613;SDS011;24369;49.480;8.488;2022-07-06T14:12:58;226.63;;;208.02;;
38613;SDS011;24369;49.480;8.488;2022-07-06T14:15:24;211.15;;;194.00;;
38613;SDS011;24369;49.480;8.488;2022-07-06T14:17:50;216.07;;;198.95;;
38613;SDS011;24369;49.480;8.488;2022-07-06T14:20:15;204.00;;;186.80;;
38613;SDS011;24369;49.480;8.488;2022-07-06T14:22:41;219.82;;;202.32;;
38613;SDS011;24369;49.480;8.488;2022-07-06T14:25:07;197.98;;;180.52;;